createdAt,value
2023-01-10T00:00:06.117Z,11.60
2023-01-10T00:02:07.891Z,10.32
2023-01-10T00:04:10.215Z,10.73
2023-01-10T00:06:12.081Z,10.07
2023-01-10T00:08:17.735Z,9.63
2023-01-10T00:10:19.756Z,10.40
2023-01-10T00:12:40.342Z,9.73
2023-01-10T00:14:42.282Z,9.07
2023-01-10T00:16:44.232Z,9.60
2023-01-10T00:18:46.039Z,9.18
2023-01-10T00:20:49.619Z,8.60
2023-01-10T00:22:51.692Z,9.38
2023-01-10T00:24:53.625Z,9.43
2023-01-10T00:26:55.546Z,10.48
2023-01-10T00:28:57.313Z,11.20
2023-01-10T00:31:06.619Z,11.43
2023-01-10T00:33:09.461Z,11.18
2023-01-10T00:35:12.616Z,10.48
2023-01-10T00:37:14.889Z,12.57
2023-01-10T00:39:19.936Z,11.05
2023-01-10T00:41:40.293Z,10.70
2023-01-10T00:43:57.340Z,11.23
2023-01-10T00:45:59.699Z,10.27
2023-01-10T00:48:01.434Z,9.35
2023-01-10T00:50:06.120Z,8.85
2023-01-10T00:52:08.027Z,8.68
2023-01-10T00:54:10.946Z,7.65
2023-01-10T00:56:12.805Z,9.53
2023-01-10T00:58:15.780Z,8.52
2023-01-10T01:00:17.716Z,8.30
2023-01-10T01:02:19.926Z,7.30
2023-01-10T01:04:22.397Z,6.70
2023-01-10T01:06:24.317Z,6.93
2023-01-10T01:08:26.249Z,7.43
2023-01-10T01:10:28.250Z,7.13
2023-01-10T01:12:30.293Z,7.10
2023-01-10T01:14:32.124Z,7.15
2023-01-10T01:16:34.166Z,7.18
2023-01-10T01:18:36.134Z,7.15
2023-01-10T01:20:40.144Z,7.22
2023-01-10T01:22:42.210Z,7.93
2023-01-10T01:24:44.242Z,7.80
2023-01-10T01:26:46.111Z,8.18
2023-01-10T01:28:47.904Z,8.30
2023-01-10T01:30:50.276Z,8.50
2023-01-10T01:32:52.148Z,9.98
2023-01-10T01:34:54.098Z,10.80
2023-01-10T01:36:57.826Z,10.63
2023-01-10T01:38:59.909Z,11.48
2023-01-10T01:41:01.773Z,10.38
2023-01-10T01:43:03.566Z,9.82
2023-01-10T01:45:08.418Z,8.40
2023-01-10T01:47:25.140Z,8.75
2023-01-10T01:49:27.250Z,8.20
2023-01-10T01:51:31.319Z,8.05
2023-01-10T01:53:39.250Z,8.98
2023-01-10T01:55:43.421Z,8.13
2023-01-10T01:57:48.025Z,9.18
2023-01-10T01:59:52.558Z,8.80
2023-01-10T02:02:00.828Z,7.13
2023-01-10T02:04:35.338Z,7.78
2023-01-10T02:06:37.453Z,7.33
2023-01-10T02:08:45.581Z,8.32
2023-01-10T02:10:55.504Z,6.97
2023-01-10T02:13:02.844Z,8.10
2023-01-10T02:15:05.286Z,10.68
2023-01-10T02:17:10.530Z,12.93
2023-01-10T02:19:23.317Z,11.95
2023-01-10T02:21:44.189Z,8.10
2023-01-10T02:23:54.789Z,5.65
2023-01-10T02:26:24.987Z,5.75
2023-01-10T02:28:45.429Z,5.13
2023-01-10T02:31:09.255Z,5.65
2023-01-10T02:33:22.802Z,4.88
2023-01-10T02:35:44.510Z,5.72
2023-01-10T02:38:01.268Z,5.00
2023-01-10T02:40:21.502Z,5.00
2023-01-10T02:42:33.717Z,4.55
2023-01-10T02:44:35.613Z,5.47
2023-01-10T02:46:39.502Z,4.93
2023-01-10T02:48:41.541Z,5.10
2023-01-10T02:50:50.986Z,5.10
2023-01-10T02:52:52.997Z,5.20
2023-01-10T02:55:00.052Z,5.30
2023-01-10T02:57:17.938Z,4.95
2023-01-10T02:59:49.883Z,5.35
2023-01-10T03:02:21.108Z,5.32
2023-01-10T03:04:52.189Z,5.03
2023-01-10T03:06:54.031Z,5.68
2023-01-10T03:09:32.967Z,5.38
2023-01-10T03:11:42.490Z,6.25
2023-01-10T03:13:53.238Z,6.65
2023-01-10T03:15:58.446Z,6.18
2023-01-10T03:18:03.996Z,6.32
2023-01-10T03:20:07.255Z,6.80
2023-01-10T03:22:11.221Z,8.05
2023-01-10T03:24:19.206Z,7.97
2023-01-10T03:26:31.002Z,8.05
2023-01-10T03:28:45.922Z,7.00
2023-01-10T03:31:26.336Z,6.75
2023-01-10T03:33:31.076Z,6.45
2023-01-10T03:35:43.651Z,6.53
2023-01-10T03:38:04.709Z,7.50
2023-01-10T03:40:15.179Z,6.97
2023-01-10T03:42:55.878Z,6.47
2023-01-10T03:45:08.199Z,5.97
2023-01-10T03:47:30.703Z,7.10
2023-01-10T03:49:35.800Z,6.72
2023-01-10T03:51:39.248Z,6.88
2023-01-10T03:53:41.387Z,7.13
2023-01-10T03:55:44.850Z,8.52
2023-01-10T03:57:47.433Z,7.60
2023-01-10T03:59:52.673Z,7.32
2023-01-10T04:01:55.329Z,8.55
2023-01-10T04:03:57.245Z,7.07
2023-01-10T04:05:59.164Z,7.55
2023-01-10T04:08:01.312Z,6.40
2023-01-10T04:10:06.759Z,6.90
2023-01-10T04:12:08.571Z,7.03
2023-01-10T04:14:10.557Z,5.63
2023-01-10T04:16:12.346Z,6.27
2023-01-10T04:18:15.939Z,6.47
2023-01-10T04:20:17.862Z,6.07
2023-01-10T04:22:19.708Z,6.40
2023-01-10T04:24:22.109Z,7.03
2023-01-10T04:26:24.060Z,6.83
2023-01-10T04:28:25.896Z,6.50
2023-01-10T04:30:27.853Z,6.70
2023-01-10T04:32:29.659Z,6.28
2023-01-10T04:34:31.839Z,6.28
2023-01-10T04:36:33.813Z,6.10
2023-01-10T04:38:35.788Z,6.40
2023-01-10T04:40:37.650Z,6.70
2023-01-10T04:42:39.525Z,6.50
2023-01-10T04:44:41.622Z,6.50
2023-01-10T04:46:43.467Z,6.35
2023-01-10T04:48:45.277Z,6.90
2023-01-10T04:50:54.252Z,9.68
2023-01-10T04:52:56.144Z,13.98
2023-01-10T04:54:57.985Z,14.35
2023-01-10T04:56:59.993Z,13.73
2023-01-10T04:59:02.357Z,12.68
2023-01-10T05:01:12.289Z,11.83
2023-01-10T05:03:14.487Z,11.98
2023-01-10T05:05:16.465Z,10.15
2023-01-10T05:07:20.735Z,9.23
2023-01-10T05:09:22.667Z,9.90
2023-01-10T05:11:24.608Z,10.10
2023-01-10T05:13:26.540Z,9.00
2023-01-10T05:15:28.446Z,8.70
2023-01-10T05:17:30.263Z,9.25
2023-01-10T05:19:32.333Z,8.20
2023-01-10T05:21:34.232Z,9.02
2023-01-10T05:23:36.781Z,11.45
2023-01-10T05:25:38.524Z,12.05
2023-01-10T05:27:43.782Z,12.70
2023-01-10T05:29:45.751Z,15.47
2023-01-10T05:31:47.617Z,16.95
2023-01-10T05:33:51.781Z,19.50
2023-01-10T05:35:53.688Z,16.38
2023-01-10T05:37:55.437Z,17.20
2023-01-10T05:39:57.192Z,16.53
2023-01-10T05:41:58.998Z,16.52
2023-01-10T05:44:00.796Z,12.98
2023-01-10T05:46:02.921Z,11.57
2023-01-10T05:48:04.991Z,10.87
2023-01-10T05:50:07.279Z,11.95
2023-01-10T05:52:09.141Z,11.27
2023-01-10T05:54:10.926Z,6.63
2023-01-10T05:56:12.864Z,6.60
2023-01-10T05:58:14.972Z,7.75
2023-01-10T06:00:17.710Z,7.35
2023-01-10T06:02:19.714Z,8.43
2023-01-10T06:04:21.638Z,9.80
2023-01-10T06:06:23.443Z,13.13
2023-01-10T06:08:25.494Z,13.55
2023-01-10T06:10:27.380Z,11.88
2023-01-10T06:12:29.349Z,11.23
2023-01-10T06:14:31.260Z,9.77
2023-01-10T06:16:33.089Z,9.60
2023-01-10T06:18:35.036Z,10.00
2023-01-10T06:20:36.838Z,8.93
2023-01-10T06:22:43.079Z,10.53
2023-01-10T06:24:44.823Z,10.25
2023-01-10T06:26:46.770Z,10.87
2023-01-10T06:28:48.690Z,8.83
2023-01-10T06:30:50.606Z,8.43
2023-01-10T06:32:52.898Z,8.05
2023-01-10T06:34:56.254Z,10.47
2023-01-10T06:36:58.589Z,13.00
2023-01-10T06:39:00.705Z,16.10
2023-01-10T06:41:13.333Z,15.73
2023-01-10T06:43:15.339Z,14.60
2023-01-10T06:45:17.475Z,11.00
2023-01-10T06:47:22.332Z,8.97
2023-01-10T06:49:24.305Z,8.53
2023-01-10T06:51:26.076Z,18.90
2023-01-10T06:53:27.992Z,14.43
2023-01-10T06:55:31.605Z,10.75
2023-01-10T06:57:38.270Z,12.55
2023-01-10T06:59:40.195Z,12.13
2023-01-10T07:01:42.257Z,15.60
2023-01-10T07:03:44.465Z,16.02
2023-01-10T07:05:46.572Z,15.50
2023-01-10T07:07:48.471Z,18.52
2023-01-10T07:09:50.995Z,17.08
2023-01-10T07:11:53.138Z,18.63
2023-01-10T07:13:55.325Z,17.98
2023-01-10T07:16:15.633Z,18.47
2023-01-10T07:18:19.752Z,15.07
2023-01-10T07:20:21.684Z,14.77
2023-01-10T07:22:26.785Z,13.45
2023-01-10T07:24:28.800Z,12.20
2023-01-10T07:26:30.715Z,11.93
2023-01-10T07:28:34.745Z,11.23
2023-01-10T07:30:37.810Z,9.75
2023-01-10T07:32:39.668Z,9.87
2023-01-10T07:34:41.442Z,11.63
2023-01-10T07:36:43.620Z,11.90
2023-01-10T07:38:45.562Z,11.57
2023-01-10T07:40:47.560Z,12.82
2023-01-10T07:42:50.215Z,17.58
2023-01-10T07:44:52.067Z,17.77
2023-01-10T07:46:53.984Z,19.60
2023-01-10T07:48:56.000Z,14.50
2023-01-10T07:50:59.486Z,11.10
2023-01-10T07:53:03.322Z,9.40
2023-01-10T07:55:10.356Z,8.63
2023-01-10T07:57:12.208Z,7.80
2023-01-10T07:59:14.323Z,9.97
2023-01-10T08:01:16.487Z,10.30
2023-01-10T08:03:18.825Z,12.40
2023-01-10T08:05:21.521Z,14.13
2023-01-10T08:07:23.615Z,13.63
2023-01-10T08:09:25.526Z,16.70
2023-01-10T08:11:27.475Z,13.57
2023-01-10T08:13:30.284Z,13.40
2023-01-10T08:15:32.723Z,13.80
2023-01-10T08:17:35.260Z,11.00
2023-01-10T08:19:37.186Z,9.65
2023-01-10T08:21:39.301Z,9.55
2023-01-10T08:23:41.199Z,9.40
2023-01-10T08:25:43.581Z,13.10
2023-01-10T08:27:45.525Z,12.03
2023-01-10T08:29:47.435Z,13.98
2023-01-10T08:31:49.333Z,13.65
2023-01-10T08:33:51.269Z,11.98
2023-01-10T08:35:53.386Z,11.65
2023-01-10T08:38:00.113Z,12.27
2023-01-10T08:40:02.524Z,12.32
2023-01-10T08:42:04.531Z,12.17
2023-01-10T08:44:06.347Z,11.33
2023-01-10T08:46:08.429Z,10.57
2023-01-10T08:48:10.697Z,9.45
2023-01-10T08:50:12.678Z,8.60
2023-01-10T08:52:14.621Z,8.68
2023-01-10T08:54:16.666Z,9.00
2023-01-10T08:56:18.568Z,7.93
2023-01-10T08:58:20.646Z,12.27
2023-01-10T09:00:23.274Z,14.88
2023-01-10T09:02:25.257Z,13.90
2023-01-10T09:04:29.893Z,12.80
2023-01-10T09:06:32.851Z,13.75
2023-01-10T09:08:35.945Z,15.25
2023-01-10T09:10:38.104Z,17.50
2023-01-10T09:12:54.996Z,19.63
2023-01-10T09:14:57.073Z,18.58
2023-01-10T09:16:59.341Z,19.93
2023-01-10T09:19:01.301Z,20.15
2023-01-10T09:21:03.636Z,19.40
2023-01-10T09:23:09.646Z,18.30
2023-01-10T09:25:11.709Z,17.75
2023-01-10T09:27:14.066Z,18.73
2023-01-10T09:29:15.921Z,22.08
2023-01-10T09:31:17.780Z,20.25
2023-01-10T09:33:20.563Z,22.27
2023-01-10T09:35:23.479Z,24.87
2023-01-10T09:37:25.513Z,23.48
2023-01-10T09:39:29.528Z,20.92
2023-01-10T09:41:34.548Z,15.00
2023-01-10T09:44:05.499Z,14.75
2023-01-10T09:46:23.923Z,16.13
2023-01-10T09:48:36.776Z,16.42
2023-01-10T09:50:49.265Z,17.60
2023-01-10T09:52:57.583Z,21.43
2023-01-10T09:55:04.763Z,26.17
2023-01-10T09:57:06.917Z,28.30
2023-01-10T09:59:21.444Z,31.02
2023-01-10T10:01:29.448Z,28.42
2023-01-10T10:03:41.542Z,30.23
2023-01-10T10:05:43.762Z,33.95
2023-01-10T10:07:47.364Z,32.25
2023-01-10T10:09:49.538Z,31.67
2023-01-10T10:12:35.092Z,26.55
2023-01-10T10:14:47.400Z,24.02
2023-01-10T10:17:27.732Z,24.95
2023-01-10T10:20:07.051Z,24.80
2023-01-10T10:22:38.984Z,37.05
2023-01-10T10:25:02.380Z,41.47
2023-01-10T10:27:19.445Z,40.65
2023-01-10T10:29:42.784Z,27.05
2023-01-10T10:31:51.672Z,26.05
2023-01-10T10:34:18.357Z,22.27
2023-01-10T10:36:31.227Z,19.70
2023-01-10T10:38:39.218Z,16.58
2023-01-10T10:40:44.535Z,14.03
2023-01-10T10:42:52.848Z,13.80
2023-01-10T10:45:05.117Z,13.35
2023-01-10T10:47:30.119Z,14.07
2023-01-10T10:50:05.829Z,12.73
2023-01-10T10:52:19.936Z,11.77
2023-01-10T10:54:23.222Z,12.82
2023-01-10T10:56:27.684Z,17.73
2023-01-10T10:58:32.166Z,39.80
2023-01-10T11:00:34.131Z,64.10
2023-01-10T11:02:43.722Z,64.57
2023-01-10T11:04:45.905Z,71.57
2023-01-10T11:06:51.226Z,66.20
2023-01-10T11:08:57.536Z,64.50
2023-01-10T11:11:04.103Z,58.55
2023-01-10T11:13:12.767Z,45.17
2023-01-10T11:15:48.687Z,31.03
2023-01-10T11:18:10.500Z,30.45
2023-01-10T11:20:17.685Z,39.15
2023-01-10T11:22:20.443Z,37.27
2023-01-10T11:24:31.558Z,35.43
2023-01-10T11:26:40.738Z,37.15
2023-01-10T11:28:45.869Z,34.35
2023-01-10T11:30:50.911Z,30.07
2023-01-10T11:32:57.167Z,27.50
2023-01-10T11:35:02.685Z,20.20
2023-01-10T11:37:29.287Z,18.40
2023-01-10T11:39:32.758Z,18.70
2023-01-10T11:41:34.947Z,16.73
2023-01-10T11:43:39.559Z,15.97
2023-01-10T11:45:43.079Z,17.90
2023-01-10T11:48:06.103Z,17.53
2023-01-10T11:50:12.125Z,18.95
2023-01-10T11:52:27.508Z,20.02
2023-01-10T11:54:30.512Z,22.13
2023-01-10T11:56:35.391Z,26.17
2023-01-10T11:58:38.679Z,25.77
2023-01-10T12:00:48.763Z,25.47
2023-01-10T12:02:52.750Z,26.23
2023-01-10T12:04:57.319Z,25.02
2023-01-10T12:07:04.588Z,25.03
2023-01-10T12:09:33.489Z,24.05
2023-01-10T12:11:36.046Z,22.75
2023-01-10T12:13:50.269Z,22.63
2023-01-10T12:15:52.209Z,20.15
2023-01-10T12:17:58.108Z,22.93
2023-01-10T12:20:02.341Z,22.15
2023-01-10T12:22:07.515Z,20.53
2023-01-10T12:24:16.111Z,19.38
2023-01-10T12:26:19.001Z,23.25
2023-01-10T12:28:30.094Z,23.23
2023-01-10T12:30:36.182Z,25.40
2023-01-10T12:32:55.807Z,30.60
2023-01-10T12:35:07.823Z,29.00
2023-01-10T12:37:18.176Z,29.55
2023-01-10T12:39:23.797Z,25.58
2023-01-10T12:42:05.980Z,30.42
2023-01-10T12:44:18.526Z,23.92
2023-01-10T12:47:04.226Z,21.57
2023-01-10T12:49:18.679Z,17.17
2023-01-10T12:51:24.148Z,19.53
2023-01-10T12:53:36.440Z,103.00
2023-01-10T12:55:41.555Z,102.35
2023-01-10T12:57:51.612Z,89.25
2023-01-10T12:59:55.590Z,83.50
2023-01-10T13:02:02.285Z,82.03
2023-01-10T13:04:09.617Z,73.87
2023-01-10T13:06:25.073Z,54.53
2023-01-10T13:08:30.686Z,49.50
2023-01-10T13:10:35.641Z,49.93
2023-01-10T13:12:42.321Z,43.50
2023-01-10T13:15:02.272Z,39.88
2023-01-10T13:17:27.292Z,35.55
2023-01-10T13:19:29.446Z,32.63
2023-01-10T13:21:33.726Z,23.27
2023-01-10T13:23:59.949Z,20.08
2023-01-10T13:26:09.361Z,23.80
2023-01-10T13:28:22.979Z,31.00
2023-01-10T13:30:30.949Z,31.07
2023-01-10T13:32:35.701Z,32.27
2023-01-10T13:34:37.921Z,27.20
2023-01-10T13:37:09.948Z,24.13
2023-01-10T13:39:46.300Z,24.30
2023-01-10T13:42:16.064Z,25.13
2023-01-10T13:44:18.078Z,26.03
2023-01-10T13:46:20.063Z,24.55
2023-01-10T13:48:28.055Z,23.25
2023-01-10T13:50:42.185Z,24.73
2023-01-10T13:52:44.189Z,26.33
2023-01-10T13:55:02.863Z,25.63
2023-01-10T13:57:42.978Z,28.30
2023-01-10T14:00:20.677Z,27.65
2023-01-10T14:02:34.786Z,28.20
2023-01-10T14:04:47.370Z,24.50
2023-01-10T14:06:59.509Z,22.00
2023-01-10T14:09:07.178Z,22.17
2023-01-10T14:11:13.064Z,20.93
2023-01-10T14:13:21.254Z,19.13
2023-01-10T14:15:27.341Z,17.87
2023-01-10T14:17:37.531Z,23.67
2023-01-10T14:19:41.513Z,25.70
2023-01-10T14:21:45.608Z,24.67
2023-01-10T14:23:54.123Z,24.60
2023-01-10T14:25:57.789Z,26.05
2023-01-10T14:28:01.343Z,27.20
2023-01-10T14:30:06.675Z,25.70
2023-01-10T14:32:26.268Z,21.92
2023-01-10T14:34:31.337Z,19.90
2023-01-10T14:36:52.369Z,19.43
2023-01-10T14:39:01.200Z,17.90
2023-01-10T14:41:06.023Z,17.08
2023-01-10T14:43:15.828Z,15.93
2023-01-10T14:45:19.691Z,16.87
2023-01-10T14:47:40.025Z,17.80
2023-01-10T14:49:51.508Z,17.97
2023-01-10T14:52:00.947Z,19.20
2023-01-10T14:54:11.664Z,17.93
2023-01-10T14:56:40.555Z,18.07
2023-01-10T14:58:42.470Z,17.07
2023-01-10T15:00:47.090Z,15.68
2023-01-10T15:02:49.851Z,15.90
2023-01-10T15:04:59.957Z,16.90
2023-01-10T15:07:12.569Z,16.13
2023-01-10T15:09:14.943Z,16.47
2023-01-10T15:11:17.975Z,16.77
2023-01-10T15:13:24.028Z,17.83
2023-01-10T15:15:38.357Z,16.80
2023-01-10T15:17:42.310Z,19.77
2023-01-10T15:19:45.321Z,16.67
2023-01-10T15:21:47.959Z,15.97
2023-01-10T15:23:50.480Z,16.73
2023-01-10T15:25:59.505Z,14.40
2023-01-10T15:28:03.024Z,15.20
2023-01-10T15:30:09.309Z,13.27
2023-01-10T15:32:24.536Z,12.83
2023-01-10T15:34:30.597Z,13.20
2023-01-10T15:36:32.882Z,13.00
2023-01-10T15:38:38.273Z,13.33
2023-01-10T15:40:41.928Z,12.47
2023-01-10T15:42:44.077Z,10.87
2023-01-10T15:44:52.762Z,16.10
2023-01-10T15:46:57.062Z,16.60
2023-01-10T15:49:02.999Z,15.33
2023-01-10T15:51:34.514Z,14.97
2023-01-10T15:54:04.042Z,16.40
2023-01-10T15:56:16.291Z,21.57
2023-01-10T15:58:30.251Z,27.67
2023-01-10T16:00:32.348Z,19.80
2023-01-10T16:02:34.700Z,17.53
2023-01-10T16:04:37.620Z,15.80
2023-01-10T16:06:39.837Z,17.00
2023-01-10T16:08:48.157Z,23.30
2023-01-10T16:10:55.998Z,20.30
2023-01-10T16:13:28.754Z,18.27
2023-01-10T16:15:36.594Z,26.35
2023-01-10T16:17:38.703Z,31.20
2023-01-10T16:19:40.882Z,38.10
2023-01-10T16:21:48.698Z,37.63
2023-01-10T16:23:50.804Z,37.27
2023-01-10T16:25:55.221Z,38.03
2023-01-10T16:27:57.708Z,38.30
2023-01-10T16:29:59.511Z,44.50
2023-01-10T16:32:01.615Z,43.17
2023-01-10T16:34:03.646Z,45.27
2023-01-10T16:36:14.678Z,49.50
2023-01-10T16:38:17.978Z,40.07
2023-01-10T16:40:25.640Z,36.17
2023-01-10T16:42:46.164Z,29.30
2023-01-10T16:44:48.290Z,23.53
2023-01-10T16:46:50.693Z,25.37
2023-01-10T16:48:53.440Z,19.63
2023-01-10T16:50:55.869Z,17.52
2023-01-10T16:52:59.028Z,18.80
2023-01-10T16:55:02.074Z,17.20
2023-01-10T16:57:04.107Z,17.37
2023-01-10T16:59:06.598Z,17.57
2023-01-10T17:01:24.482Z,19.70
2023-01-10T17:03:27.027Z,19.10
2023-01-10T17:05:28.987Z,15.37
2023-01-10T17:07:30.932Z,14.93
2023-01-10T17:09:33.037Z,16.13
2023-01-10T17:11:40.785Z,15.83
2023-01-10T17:13:44.658Z,13.93
2023-01-10T17:15:46.716Z,16.67
2023-01-10T17:17:48.812Z,16.80
2023-01-10T17:19:50.720Z,15.00
2023-01-10T17:21:53.204Z,14.30
2023-01-10T17:23:55.393Z,15.47
2023-01-10T17:26:02.493Z,15.00
2023-01-10T17:28:04.677Z,13.17
2023-01-10T17:30:07.242Z,13.00
2023-01-10T17:32:09.378Z,12.47
2023-01-10T17:34:11.424Z,11.23
2023-01-10T17:36:13.429Z,13.37
2023-01-10T17:38:17.007Z,12.33
2023-01-10T17:40:19.128Z,12.07
2023-01-10T17:42:22.914Z,11.63
2023-01-10T17:44:25.093Z,12.87
2023-01-10T17:46:27.213Z,15.60
2023-01-10T17:48:29.378Z,11.57
2023-01-10T17:50:31.444Z,12.57
2023-01-10T17:52:33.382Z,12.27
2023-01-10T17:54:36.448Z,9.77
2023-01-10T17:56:38.738Z,9.60
2023-01-10T17:58:40.734Z,10.00
2023-01-10T18:00:42.898Z,11.17
2023-01-10T18:02:45.002Z,10.40
2023-01-10T18:04:47.183Z,8.13
2023-01-10T18:06:52.351Z,10.00
2023-01-10T18:08:54.694Z,11.47
2023-01-10T18:11:00.827Z,10.50
2023-01-10T18:13:05.414Z,8.43
2023-01-10T18:15:08.189Z,9.90
2023-01-10T18:17:12.232Z,9.47
2023-01-10T18:19:14.320Z,13.50
2023-01-10T18:21:19.167Z,14.57
2023-01-10T18:23:21.713Z,17.60
2023-01-10T18:25:24.781Z,16.17
2023-01-10T18:27:27.370Z,18.83
2023-01-10T18:29:29.438Z,21.77
2023-01-10T18:31:31.337Z,14.37
2023-01-10T18:33:34.052Z,9.03
2023-01-10T18:35:36.031Z,8.10
2023-01-10T18:37:38.289Z,8.37
2023-01-10T18:39:40.606Z,6.70
2023-01-10T18:41:42.789Z,7.10
2023-01-10T18:43:45.468Z,6.50
2023-01-10T18:45:48.135Z,7.20
2023-01-10T18:47:52.140Z,8.03
2023-01-10T18:49:54.334Z,9.77
2023-01-10T18:51:56.576Z,8.83
2023-01-10T18:53:58.958Z,6.90
2023-01-10T18:56:04.751Z,7.33
2023-01-10T18:58:06.903Z,6.97
2023-01-10T19:00:09.964Z,6.13
2023-01-10T19:02:14.289Z,6.67
2023-01-10T19:04:17.593Z,5.90
2023-01-10T19:06:22.719Z,17.03
2023-01-10T19:08:24.679Z,10.80
2023-01-10T19:10:26.665Z,16.20
2023-01-10T19:12:28.891Z,13.10
2023-01-10T19:14:31.059Z,8.10
2023-01-10T19:16:33.419Z,9.23
2023-01-10T19:18:35.650Z,8.97
2023-01-10T19:20:37.674Z,8.17
2023-01-10T19:22:39.788Z,10.33
2023-01-10T19:24:41.827Z,8.40
2023-01-10T19:26:43.706Z,13.20
2023-01-10T19:28:46.043Z,10.90
2023-01-10T19:31:03.470Z,14.70
2023-01-10T19:33:06.053Z,11.40
2023-01-10T19:35:08.765Z,9.17
2023-01-10T19:37:10.872Z,8.27
2023-01-10T19:39:13.042Z,8.67
2023-01-10T19:41:16.164Z,12.10
2023-01-10T19:43:18.592Z,13.60
2023-01-10T19:45:20.649Z,10.80
2023-01-10T19:47:22.688Z,16.27
2023-01-10T19:49:24.772Z,12.23
2023-01-10T19:51:26.882Z,10.80
2023-01-10T19:53:28.825Z,11.07
2023-01-10T19:55:32.584Z,10.70
2023-01-10T19:57:34.563Z,16.47
2023-01-10T19:59:36.672Z,14.60
2023-01-10T20:01:39.128Z,11.13
2023-01-10T20:03:44.940Z,9.93
2023-01-10T20:05:49.825Z,7.70
2023-01-10T20:07:52.738Z,7.47
2023-01-10T20:09:58.378Z,7.57
2023-01-10T20:12:00.766Z,7.27
2023-01-10T20:14:03.057Z,7.13
2023-01-10T20:16:06.765Z,5.50
2023-01-10T20:18:08.989Z,5.80
2023-01-10T20:20:12.247Z,6.90
2023-01-10T20:22:14.622Z,6.50
2023-01-10T20:24:19.618Z,7.33
2023-01-10T20:26:26.053Z,7.20
2023-01-10T20:28:29.605Z,8.23
2023-01-10T20:30:31.751Z,9.33
2023-01-10T20:32:33.995Z,8.93
2023-01-10T20:34:36.104Z,8.33
2023-01-10T20:36:38.243Z,5.50
2023-01-10T20:38:40.881Z,7.03
2023-01-10T20:40:42.915Z,6.47
2023-01-10T20:42:52.655Z,7.47
2023-01-10T20:44:58.048Z,8.50
2023-01-10T20:47:00.522Z,8.97
2023-01-10T20:49:03.480Z,9.37
2023-01-10T20:51:06.699Z,7.50
2023-01-10T20:53:08.841Z,7.00
2023-01-10T20:55:11.387Z,7.97
2023-01-10T20:57:13.386Z,6.17
2023-01-10T20:59:15.656Z,6.70
2023-01-10T21:01:33.165Z,6.03
2023-01-10T21:03:36.352Z,6.57
2023-01-10T21:05:40.739Z,5.90
2023-01-10T21:07:42.798Z,6.47
2023-01-10T21:09:44.921Z,5.43
2023-01-10T21:12:00.045Z,5.53
2023-01-10T21:14:06.439Z,5.57
2023-01-10T21:16:11.966Z,5.10
2023-01-10T21:18:16.290Z,4.93
2023-01-10T21:20:18.463Z,4.83
2023-01-10T21:22:23.457Z,5.47
2023-01-10T21:24:25.901Z,5.10
2023-01-10T21:26:28.247Z,4.83
2023-01-10T21:28:38.705Z,5.53
2023-01-10T21:30:41.493Z,5.77
2023-01-10T21:32:43.615Z,4.83
2023-01-10T21:34:45.548Z,4.70
2023-01-10T21:36:47.497Z,5.00
2023-01-10T21:38:49.763Z,4.57
2023-01-10T21:40:52.037Z,5.30
2023-01-10T21:42:54.566Z,6.23
2023-01-10T21:44:56.803Z,5.03
2023-01-10T21:46:58.911Z,5.00
2023-01-10T21:49:04.912Z,5.60
2023-01-10T21:51:06.980Z,5.13
2023-01-10T21:53:09.385Z,5.30
2023-01-10T21:55:14.530Z,5.47
2023-01-10T21:59:48.073Z,5.50
2023-01-10T22:01:50.076Z,5.07
2023-01-10T22:03:52.924Z,5.00
2023-01-10T22:05:55.241Z,5.83
2023-01-10T22:07:57.358Z,4.80
2023-01-10T22:09:59.508Z,5.47
2023-01-10T22:12:01.861Z,5.80
2023-01-10T22:14:03.986Z,6.03
2023-01-10T22:16:07.273Z,6.10
2023-01-10T22:18:09.481Z,6.50
2023-01-10T22:20:12.667Z,5.83
2023-01-10T22:22:15.169Z,6.20
2023-01-10T22:24:17.321Z,6.03
2023-01-10T22:26:19.468Z,6.10
2023-01-10T22:28:21.539Z,5.67
2023-01-10T22:30:23.563Z,6.27
2023-01-10T22:32:25.618Z,5.83
2023-01-10T22:34:27.856Z,5.40
2023-01-10T22:36:30.031Z,5.67
2023-01-10T22:38:35.334Z,5.83
2023-01-10T22:40:38.558Z,5.73
2023-01-10T22:42:40.693Z,5.70
2023-01-10T22:44:42.873Z,5.57
2023-01-10T22:46:48.509Z,5.80
2023-01-10T22:48:50.758Z,5.73
2023-01-10T22:50:52.843Z,5.27
2023-01-10T22:52:54.663Z,5.87
2023-01-10T22:54:58.971Z,6.00
2023-01-10T22:57:01.421Z,6.07
2023-01-10T22:59:03.939Z,5.23
2023-01-10T23:01:07.638Z,5.27
2023-01-10T23:03:09.864Z,5.00
2023-01-10T23:05:11.941Z,5.70
2023-01-10T23:07:14.071Z,4.90
2023-01-10T23:09:16.485Z,5.80
2023-01-10T23:11:20.769Z,5.67
2023-01-10T23:13:24.234Z,6.33
2023-01-10T23:15:26.498Z,5.30
2023-01-10T23:17:28.547Z,5.63
2023-01-10T23:19:30.532Z,5.70
2023-01-10T23:21:32.775Z,6.17
2023-01-10T23:23:36.616Z,5.97
2023-01-10T23:25:38.621Z,5.17
2023-01-10T23:27:40.696Z,5.33
2023-01-10T23:29:42.826Z,4.50
2023-01-10T23:31:49.725Z,4.03
2023-01-10T23:33:54.738Z,6.23
2023-01-10T23:35:57.128Z,4.83
2023-01-10T23:37:59.186Z,4.87
2023-01-10T23:40:03.951Z,5.20
2023-01-10T23:42:06.133Z,4.77
2023-01-10T23:44:08.589Z,5.17
2023-01-10T23:46:10.655Z,5.97
2023-01-10T23:48:13.054Z,5.87
2023-01-10T23:50:17.621Z,5.60
2023-01-10T23:52:19.826Z,6.13
2023-01-10T23:54:22.073Z,5.30
2023-01-10T23:56:26.888Z,4.90
2023-01-10T23:58:28.870Z,4.70
